EWG72L LEBB-LSGG
Flight info
| Callsign | EWG72L |
|---|---|
| Flight time | N/A |
| Altitude | 34000 |
| Route | PPN2H PPN DCT LATEK DCT GONUP DCT TOU DCT GAI DCT MEN DCT NINUN DCT LATAM DCT ETREK/N0458F300 DCT LUXAN G53 LTP Z16 BELUS BELUS4N |
| Aircraft | A320/M-SDE3FGHIRWY/LB1 |
Departure
| Time | N/A |
|---|---|
| Airport | Bilbao Airport (LEBB) |
Arrival
| Time | 2026-05-01 14:46 |
|---|---|
| Airport | Geneva International Airport (LSGG) |
| Time | Latitude | Longitude | Altitude | Speed | Heading |
|---|---|---|---|---|---|
| 2026-05-01 14:24 | 45.09618 | 4.40012 | 34259 ft | 471 kts | 61° |
| 2026-05-01 14:25 | 45.12755 | 4.48152 | 34265 ft | 471 kts | 61° |
| 2026-05-01 14:25 | 45.14319 | 4.52236 | 34086 ft | 472 kts | 61° |
| 2026-05-01 14:25 | 45.15886 | 4.56334 | 33061 ft | 477 kts | 61° |
| 2026-05-01 14:26 | 45.17468 | 4.60481 | 32037 ft | 479 kts | 61° |
| 2026-05-01 14:26 | 45.20657 | 4.68831 | 29955 ft | 484 kts | 60° |
| 2026-05-01 14:26 | 45.22265 | 4.73041 | 28773 ft | 486 kts | 61° |
| 2026-05-01 14:27 | 45.23852 | 4.77205 | 27684 ft | 486 kts | 62° |
| 2026-05-01 14:27 | 45.25451 | 4.81415 | 26891 ft | 481 kts | 62° |
| 2026-05-01 14:27 | 45.27045 | 4.85623 | 26137 ft | 475 kts | 62° |
| 2026-05-01 14:28 | 45.30121 | 4.93745 | 24622 ft | 467 kts | 63° |
| 2026-05-01 14:28 | 45.31649 | 4.97790 | 23899 ft | 463 kts | 63° |
| 2026-05-01 14:28 | 45.33164 | 5.01808 | 23101 ft | 459 kts | 64° |
| 2026-05-01 14:28 | 45.34660 | 5.05780 | 22426 ft | 452 kts | 64° |
| 2026-05-01 14:29 | 45.36138 | 5.09706 | 21759 ft | 447 kts | 64° |
| 2026-05-01 14:29 | 45.37592 | 5.13583 | 21119 ft | 442 kts | 64° |
| 2026-05-01 14:30 | 45.41847 | 5.24962 | 19294 ft | 428 kts | 64° |
| 2026-05-01 14:30 | 45.43237 | 5.28682 | 18740 ft | 424 kts | 65° |
| 2026-05-01 14:30 | 45.44611 | 5.32369 | 18157 ft | 419 kts | 65° |
| 2026-05-01 14:31 | 45.47343 | 5.39612 | 17116 ft | 413 kts | 59° |
| 2026-05-01 14:31 | 45.49080 | 5.42919 | 16579 ft | 420 kts | 50° |
| 2026-05-01 14:31 | 45.51232 | 5.45702 | 16044 ft | 418 kts | 38° |
| 2026-05-01 14:31 | 45.53692 | 5.47888 | 15642 ft | 411 kts | 31° |
| 2026-05-01 14:32 | 45.56125 | 5.49872 | 15520 ft | 396 kts | 31° |
| 2026-05-01 14:32 | 45.57695 | 5.51166 | 15437 ft | 387 kts | 32° |
| 2026-05-01 14:32 | 45.60733 | 5.53696 | 15276 ft | 369 kts | 32° |
| 2026-05-01 14:32 | 45.62909 | 5.55519 | 15143 ft | 357 kts | 32° |
| 2026-05-01 14:33 | 45.65016 | 5.57282 | 15026 ft | 346 kts | 32° |
| 2026-05-01 14:33 | 45.67059 | 5.58991 | 14901 ft | 335 kts | 32° |
| 2026-05-01 14:33 | 45.69052 | 5.60636 | 14711 ft | 328 kts | 31° |
| 2026-05-01 14:33 | 45.71032 | 5.62216 | 14391 ft | 325 kts | 30° |
| 2026-05-01 14:34 | 45.73010 | 5.63769 | 14060 ft | 324 kts | 30° |
| 2026-05-01 14:34 | 45.74985 | 5.65308 | 13694 ft | 322 kts | 30° |
| 2026-05-01 14:34 | 45.76951 | 5.66837 | 13475 ft | 320 kts | 30° |
| 2026-05-01 14:34 | 45.78905 | 5.68368 | 13304 ft | 322 kts | 30° |
| 2026-05-01 14:35 | 45.80873 | 5.69921 | 13152 ft | 323 kts | 31° |
| 2026-05-01 14:35 | 45.82826 | 5.71468 | 13001 ft | 320 kts | 31° |
| 2026-05-01 14:35 | 45.84761 | 5.73006 | 12687 ft | 317 kts | 30° |
| 2026-05-01 14:35 | 45.86656 | 5.74512 | 12333 ft | 315 kts | 30° |
| 2026-05-01 14:36 | 45.88643 | 5.75801 | 12009 ft | 313 kts | 17° |
| 2026-05-01 14:36 | 45.90769 | 5.76461 | 11649 ft | 312 kts | 11° |
| 2026-05-01 14:36 | 45.92884 | 5.77043 | 11083 ft | 307 kts | 11° |
| 2026-05-01 14:36 | 45.94973 | 5.77622 | 10449 ft | 305 kts | 11° |
| 2026-05-01 14:37 | 45.97048 | 5.78200 | 9802 ft | 301 kts | 11° |
| 2026-05-01 14:37 | 45.99104 | 5.78774 | 8998 ft | 301 kts | 11° |
| 2026-05-01 14:37 | 46.01157 | 5.79358 | 8188 ft | 302 kts | 14° |
| 2026-05-01 14:37 | 46.03040 | 5.80629 | 7388 ft | 299 kts | 40° |
| 2026-05-01 14:38 | 46.04525 | 5.82684 | 6686 ft | 295 kts | 45° |
| 2026-05-01 14:38 | 46.05475 | 5.84070 | 6248 ft | 292 kts | 46° |
| 2026-05-01 14:38 | 46.06870 | 5.86103 | 5783 ft | 276 kts | 40° |
| 2026-05-01 14:38 | 46.08482 | 5.87105 | 5703 ft | 238 kts | 358° |
| 2026-05-01 14:39 | 46.09907 | 5.86320 | 5811 ft | 220 kts | 313° |
| 2026-05-01 14:39 | 46.10453 | 5.84354 | 5927 ft | 216 kts | 265° |
| 2026-05-01 14:39 | 46.09803 | 5.82480 | 6123 ft | 214 kts | 217° |
| 2026-05-01 14:39 | 46.08412 | 5.81929 | 6270 ft | 214 kts | 171° |
| 2026-05-01 14:40 | 46.07188 | 5.83033 | 6250 ft | 214 kts | 123° |
| 2026-05-01 14:40 | 46.06929 | 5.85097 | 6177 ft | 217 kts | 82° |
| 2026-05-01 14:40 | 46.07524 | 5.87099 | 5685 ft | 222 kts | 51° |
| 2026-05-01 14:40 | 46.08591 | 5.88688 | 5335 ft | 217 kts | 45° |
| 2026-05-01 14:41 | 46.09642 | 5.90209 | 5035 ft | 211 kts | 45° |
| 2026-05-01 14:41 | 46.10662 | 5.91692 | 4761 ft | 205 kts | 46° |
| 2026-05-01 14:41 | 46.11650 | 5.93130 | 4491 ft | 200 kts | 46° |
| 2026-05-01 14:41 | 46.12619 | 5.94541 | 4225 ft | 196 kts | 46° |
| 2026-05-01 14:42 | 46.13563 | 5.95916 | 3969 ft | 189 kts | 46° |
| 2026-05-01 14:42 | 46.14465 | 5.97232 | 3725 ft | 179 kts | 46° |
| 2026-05-01 14:42 | 46.15301 | 5.98452 | 3515 ft | 168 kts | 45° |
| 2026-05-01 14:42 | 46.16108 | 5.99631 | 3307 ft | 159 kts | 45° |
| 2026-05-01 14:43 | 46.16858 | 6.00725 | 3093 ft | 153 kts | 45° |
| 2026-05-01 14:43 | 46.17598 | 6.01807 | 2892 ft | 151 kts | 45° |
| 2026-05-01 14:43 | 46.18333 | 6.02881 | 2688 ft | 150 kts | 45° |
| 2026-05-01 14:43 | 46.19064 | 6.03949 | 2483 ft | 149 kts | 45° |
| 2026-05-01 14:44 | 46.19791 | 6.05012 | 2275 ft | 148 kts | 46° |
| 2026-05-01 14:44 | 46.21230 | 6.07111 | 1861 ft | 146 kts | 47° |
| 2026-05-01 14:44 | 46.21940 | 6.08166 | 1681 ft | 147 kts | 45° |
| 2026-05-01 14:45 | 46.22658 | 6.09213 | 1479 ft | 144 kts | 46° |
| 2026-05-01 14:45 | 46.23825 | 6.10924 | 1382 ft | 84 kts | 46° |
| 2026-05-01 14:45 | 46.24156 | 6.11414 | 1374 ft | 58 kts | 46° |
| 2026-05-01 14:46 | 46.24320 | 6.11738 | 1370 ft | 33 kts | 74° |
| 2026-05-01 14:46 | 46.24224 | 6.11842 | 1362 ft | 14 kts | 225° |
| 2026-05-01 14:46 | 46.24159 | 6.11748 | 1365 ft | 12 kts | 225° |
| 2026-05-01 14:47 | 46.24110 | 6.11677 | 1367 ft | 8 kts | 225° |
| 2026-05-01 14:47 | 46.24068 | 6.11615 | 1369 ft | 12 kts | 226° |
| 2026-05-01 14:47 | 46.23996 | 6.11509 | 1372 ft | 16 kts | 225° |
| 2026-05-01 14:48 | 46.23812 | 6.11241 | 1378 ft | 21 kts | 225° |
| 2026-05-01 14:48 | 46.23711 | 6.11091 | 1383 ft | 18 kts | 226° |
| 2026-05-01 14:48 | 46.23610 | 6.11151 | 1395 ft | 12 kts | 137° |
| 2026-05-01 14:49 | 46.23502 | 6.11060 | 1401 ft | 8 kts | 226° |
| 2026-05-01 14:49 | 46.23433 | 6.10957 | 1396 ft | 8 kts | 225° |
| 2026-05-01 14:50 | 46.23315 | 6.10801 | 1395 ft | 15 kts | 203° |
| 2026-05-01 14:50 | 46.23167 | 6.10660 | 1397 ft | 5 kts | 226° |
| 2026-05-01 14:51 | 46.23141 | 6.10635 | 1395 ft | 4 kts | 195° |
| 2026-05-01 14:51 | 46.23109 | 6.10656 | 1397 ft | 2 kts | 135° |
| 2026-05-01 14:52 | 46.23103 | 6.10665 | 1394 ft | 0 kts | 135° |